Time;durP1;ratioP1;P1;durP2;ratioP2;P2;SDS_P1;SDS_P2;PMS_P1;PMS_P2;Temp;Humidity;BMP_temperature;BMP_pressure;BME280_temperature;BME280_humidity;BME280_pressure;Samples;Min_cycle;Max_cycle;Signal;HPM_P1;HPM_P2
2022/07/04 00:03:14;;;;;;;2.92;2.00;;;24.20;59.90;;;23.10;47.92;100057.13;10252050;28;96932;-82
2022/07/04 00:08:18;;;;;;;3.13;2.13;;;24.30;60.00;;;23.01;48.46;100061.34;10230452;28;96739;-83
2022/07/04 00:13:21;;;;;;;4.47;2.15;;;24.30;60.30;;;22.81;49.32;100070.84;10254910;28;96705;-82
2022/07/04 00:18:24;;;;;;;4.20;2.40;;;24.20;61.30;;;22.66;49.35;100062.50;10249057;28;97161;-82
2022/07/04 00:23:27;;;;;;;4.90;2.17;;;24.00;61.00;;;22.43;49.36;100061.69;10260433;28;98627;-83
2022/07/04 00:28:30;;;;;;;3.10;2.50;;;23.80;61.50;;;22.23;50.05;100071.38;10243042;28;96788;-83
2022/07/04 00:33:33;;;;;;;2.72;2.30;;;23.50;62.00;;;22.05;50.65;100069.72;10239783;28;96705;-83
2022/07/04 00:38:35;;;;;;;4.18;2.55;;;23.30;62.40;;;21.85;51.24;100067.50;10239417;28;96925;-83
2022/07/04 00:43:38;;;;;;;3.05;2.75;;;23.20;63.00;;;21.69;52.12;100074.53;10255352;28;96593;-83
2022/07/04 00:49:06;;;;;;;4.10;2.50;;;23.00;63.50;;;21.60;52.26;100063.28;10253140;28;97200;-83
2022/07/04 00:54:13;;;;;;;4.22;2.97;;;22.90;63.80;;;21.54;52.18;100064.28;10237500;28;96879;-83
2022/07/04 00:59:16;;;;;;;2.85;2.55;;;22.80;64.20;;;21.43;52.84;100069.72;10247633;28;97604;-83
2022/07/04 01:04:19;;;;;;;3.40;2.92;;;22.70;64.70;;;21.29;53.24;100063.78;10245001;28;96907;-83
2022/07/04 01:09:22;;;;;;;4.05;3.13;;;22.50;64.90;;;21.26;53.20;100077.75;10250732;28;96630;-83
2022/07/04 01:14:25;;;;;;;4.38;3.42;;;22.50;65.30;;;21.34;53.28;100071.97;10253187;28;98435;-83
2022/07/04 01:19:28;;;;;;;4.80;3.15;;;22.50;65.20;;;21.44;52.86;100076.78;10252362;28;97215;-82
2022/07/04 01:24:31;;;;;;;3.95;3.30;;;22.60;65.00;;;21.61;52.36;100083.84;10252065;28;96671;-82
2022/07/04 01:29:34;;;;;;;4.25;3.55;;;22.70;64.60;;;21.80;51.37;100067.41;10242033;28;98565;-82
2022/07/04 01:34:38;;;;;;;6.00;3.15;;;22.90;64.20;;;21.99;51.29;100076.09;10250832;28;97444;-82
2022/07/04 01:39:45;;;;;;;4.75;3.20;;;23.10;63.80;;;22.13;50.49;100072.88;10251208;28;98428;-82
2022/07/04 01:44:48;;;;;;;3.80;3.13;;;23.30;63.40;;;22.27;50.45;100069.81;10251003;28;96627;-82
2022/07/04 01:49:51;;;;;;;5.18;3.63;;;23.40;63.00;;;22.36;50.08;100071.84;10247990;28;98549;-82
2022/07/04 01:54:55;;;;;;;4.15;3.40;;;23.50;62.80;;;22.37;49.64;100084.34;10225430;28;97171;-82
2022/07/04 02:05:19;;;;;;;3.70;3.38;;;23.50;63.00;;;22.33;50.44;100085.06;10238967;28;96987;-83
2022/07/04 02:10:23;;;;;;;4.20;3.17;;;23.50;63.00;;;22.26;50.36;100092.53;10228628;28;96783;-83
2022/07/04 02:15:37;;;;;;;3.75;3.22;;;23.40;63.10;;;22.11;50.72;100093.94;10247965;28;96726;-83
2022/07/04 02:20:40;;;;;;;3.80;3.47;;;23.30;63.40;;;21.97;50.92;100098.00;10248035;28;97649;-83
2022/07/04 02:25:43;;;;;;;5.03;3.90;;;23.10;63.70;;;21.83;51.45;100091.25;10239868;28;97102;-83
2022/07/04 02:30:46;;;;;;;5.05;3.30;;;23.00;64.00;;;21.68;52.10;100088.28;10237174;28;96653;-83
2022/07/04 02:35:49;;;;;;;6.13;3.47;;;22.90;64.40;;;21.52;52.15;100090.72;10237748;28;98372;-83
2022/07/04 02:40:52;;;;;;;3.88;3.47;;;22.70;64.80;;;21.37;52.97;100093.97;10257237;28;96648;-83
2022/07/04 02:45:54;;;;;;;4.47;3.30;;;22.60;65.30;;;21.30;53.39;100098.69;10239201;28;98054;-83
2022/07/04 02:50:57;;;;;;;5.30;3.80;;;22.50;65.70;;;21.24;53.45;100096.91;10237433;28;96643;-83
2022/07/04 02:56:03;;;;;;;4.00;3.60;;;22.40;66.00;;;21.21;54.03;100107.38;10252591;28;96641;-83
2022/07/04 03:01:06;;;;;;;4.28;3.70;;;22.40;66.30;;;21.21;54.26;100099.28;10253734;28;97213;-83
2022/07/04 03:06:10;;;;;;;5.35;3.83;;;22.30;66.50;;;21.19;54.26;100102.22;10255500;28;97978;-83
2022/07/04 03:11:13;;;;;;;5.28;3.72;;;22.40;66.60;;;21.19;54.14;100098.69;10257712;28;96544;-83
2022/07/04 03:16:16;;;;;;;4.20;3.80;;;22.40;66.70;;;21.18;54.52;100100.59;10252282;28;97373;-83
2022/07/04 03:21:19;;;;;;;5.13;4.60;;;22.30;66.90;;;21.09;55.14;100102.00;10255709;28;96743;-83
2022/07/04 03:26:22;;;;;;;8.30;4.20;;;22.30;67.50;;;21.00;55.33;100106.16;10253997;28;96792;-82
2022/07/04 03:31:26;;;;;;;4.45;3.90;;;22.10;67.90;;;20.95;55.57;100104.16;10251521;28;96837;-82
2022/07/04 03:36:29;;;;;;;4.30;3.60;;;22.10;68.30;;;20.96;55.71;100103.09;10237469;28;97055;-83
2022/07/04 03:41:32;;;;;;;5.15;4.00;;;22.10;68.70;;;21.08;56.12;100097.66;10232371;28;96565;-83
2022/07/04 03:46:35;;;;;;;3.90;3.50;;;22.10;68.90;;;21.19;56.28;100096.00;10236902;28;96956;-83
2022/07/04 03:51:38;;;;;;;4.53;3.75;;;22.20;69.50;;;21.39;55.89;100091.00;10255881;28;96687;-83
2022/07/04 03:56:41;;;;;;;4.50;4.10;;;22.40;69.10;;;21.65;54.90;100078.75;10238856;28;98125;-83
2022/07/04 04:01:44;;;;;;;6.20;4.13;;;22.70;68.30;;;21.99;54.33;100090.44;10246175;28;98516;-82
2022/07/04 04:06:47;;;;;;;4.25;3.85;;;23.00;67.50;;;22.32;53.42;100086.97;10252744;28;98113;-83
2022/07/04 04:11:52;;;;;;;4.68;3.88;;;23.30;66.90;;;22.62;52.60;100081.16;10243055;28;96680;-82
2022/07/04 04:16:54;;;;;;;4.93;4.40;;;23.60;66.20;;;22.90;51.88;100090.22;10249498;28;97122;-83
2022/07/04 04:21:57;;;;;;;7.03;3.97;;;23.90;65.70;;;23.15;51.59;100092.41;10250399;28;98010;-83
2022/07/04 04:27:01;;;;;;;4.57;3.88;;;24.10;65.20;;;23.34;51.26;100084.78;10250841;28;97726;-83
2022/07/04 04:32:04;;;;;;;7.22;3.90;;;24.30;65.00;;;23.50;51.27;100084.66;10248978;28;96954;-83
2022/07/04 04:37:07;;;;;;;8.50;4.15;;;24.50;64.90;;;23.68;51.38;100091.66;10240281;28;96618;-83
2022/07/04 04:42:10;;;;;;;5.13;4.05;;;24.70;64.90;;;23.81;50.95;100086.88;10253355;28;98214;-83
2022/07/04 04:47:13;;;;;;;6.55;4.03;;;24.80;64.70;;;24.03;50.50;100082.19;10246615;28;98242;-83
2022/07/04 04:52:16;;;;;;;4.70;3.78;;;25.00;64.90;;;24.26;49.85;100070.97;10245591;28;97873;-83
2022/07/04 04:57:19;;;;;;;4.40;4.00;;;25.30;63.70;;;24.52;48.28;100063.00;10240595;28;97708;-84
2022/07/04 05:02:22;;;;;;;5.35;4.00;;;25.50;62.70;;;24.77;47.04;100073.19;10242461;28;97734;-85
2022/07/04 05:07:25;;;;;;;4.72;3.63;;;25.70;61.40;;;25.03;45.94;100057.81;10240102;28;96752;-84
2022/07/04 05:12:28;;;;;;;3.90;3.50;;;26.00;60.40;;;25.33;45.00;100066.09;10235064;28;96778;-84
2022/07/04 05:17:31;;;;;;;4.57;3.22;;;26.20;59.40;;;25.57;43.82;100076.47;10237234;28;96681;-84
2022/07/04 05:22:34;;;;;;;3.80;3.10;;;26.50;58.20;;;25.79;42.78;100082.53;10240248;28;98937;-84
2022/07/04 05:27:38;;;;;;;3.13;2.72;;;26.70;57.70;;;26.01;42.66;100086.88;10240529;28;97749;-84
2022/07/04 05:32:41;;;;;;;3.40;3.10;;;26.90;57.30;;;26.21;41.70;100080.59;10249323;28;96667;-83
2022/07/04 05:37:44;;;;;;;6.70;3.03;;;27.10;56.40;;;26.44;42.10;100090.13;10240453;28;97841;-84
2022/07/04 05:42:48;;;;;;;3.17;2.88;;;27.30;56.80;;;26.62;41.05;100103.97;10239817;28;96758;-84
2022/07/04 05:47:51;;;;;;;3.70;2.70;;;27.50;56.00;;;26.81;41.13;100089.75;10236210;28;96980;-84
2022/07/04 05:52:54;;;;;;;3.17;2.40;;;27.70;56.30;;;26.99;40.42;100091.06;10243738;28;96784;-84
2022/07/04 05:57:57;;;;;;;2.50;2.30;;;27.90;55.50;;;27.21;38.88;100086.91;10234166;28;96772;-84
2022/07/04 06:03:00;;;;;;;2.13;1.58;;;28.10;54.30;;;27.40;37.48;100084.34;10257429;28;97238;-85
2022/07/04 06:08:03;;;;;;;2.75;1.83;;;28.30;53.10;;;27.62;37.45;100088.56;10262530;28;97052;-84
2022/07/04 06:13:08;;;;;;;2.00;1.70;;;28.60;52.90;;;27.79;37.10;100086.31;10245580;28;99990;-84
2022/07/04 06:18:12;;;;;;;1.73;1.63;;;28.80;52.40;;;27.94;36.08;100088.09;10256360;28;96717;-85
2022/07/04 06:23:15;;;;;;;2.20;1.60;;;28.90;51.90;;;28.07;36.17;100083.88;10236706;28;97978;-84
2022/07/04 06:28:18;;;;;;;2.20;1.60;;;29.00;51.50;;;28.18;35.34;100088.97;10239701;28;97611;-86
2022/07/04 06:39:03;;;;;;;2.97;1.70;;;29.30;50.90;;;28.45;35.35;100093.94;10238407;28;96809;-85
2022/07/04 06:44:06;;;;;;;3.55;1.60;;;29.40;50.90;;;28.60;34.89;100086.66;10239554;28;96940;-84
2022/07/04 06:49:15;;;;;;;1.50;1.30;;;29.60;50.80;;;28.78;34.29;100081.25;10261261;28;100937;-85
2022/07/04 06:54:18;;;;;;;2.40;1.67;;;29.70;50.20;;;28.93;34.03;100083.03;10231558;28;98480;-84
2022/07/04 06:59:21;;;;;;;1.60;1.50;;;29.90;49.60;;;29.02;33.88;100081.25;10243901;28;97346;-85
2022/07/04 07:04:24;;;;;;;2.15;1.58;;;30.00;49.60;;;29.15;33.25;100079.75;10252311;28;97318;-85
2022/07/04 07:09:27;;;;;;;2.08;1.33;;;30.10;49.20;;;29.27;33.47;100082.06;10261096;28;96758;-85
2022/07/04 07:14:30;;;;;;;3.63;1.27;;;30.20;49.10;;;29.39;33.12;100093.38;10268405;28;97879;-84
2022/07/04 07:19:33;;;;;;;2.08;1.25;;;30.30;48.70;;;29.48;32.64;100091.59;10269897;28;96481;-85
2022/07/04 07:24:36;;;;;;;1.30;1.20;;;30.40;48.50;;;29.57;31.79;100086.31;10271658;28;96795;-85
2022/07/04 07:29:39;;;;;;;1.52;1.13;;;30.50;47.70;;;29.63;31.92;100073.34;10271138;28;98758;-84
2022/07/04 07:34:43;;;;;;;2.35;1.40;;;30.50;47.60;;;29.74;31.37;100083.03;10267141;28;96653;-84
2022/07/04 07:39:46;;;;;;;1.45;1.08;;;30.60;47.40;;;29.89;31.78;100087.47;10252527;28;96716;-86
2022/07/04 07:44:50;;;;;;;1.58;1.10;;;30.80;47.60;;;30.04;31.07;100079.78;10233815;28;98316;-85
2022/07/04 07:49:53;;;;;;;1.67;1.00;;;30.90;47.00;;;30.22;31.19;100082.81;10242877;28;99137;-85
2022/07/04 07:54:56;;;;;;;2.25;1.05;;;31.10;47.00;;;30.35;30.47;100071.88;10261421;28;96855;-86
2022/07/04 08:00:05;;;;;;;3.22;0.95;;;31.30;46.80;;;30.49;30.57;100068.34;10267394;28;96743;-86
2022/07/04 08:05:09;;;;;;;1.50;0.90;;;31.40;46.50;;;30.64;30.24;100071.56;10258399;28;98631;-86
2022/07/04 08:10:12;;;;;;;3.15;1.10;;;31.50;46.40;;;30.80;29.73;100074.06;10256170;28;97248;-85
2022/07/04 08:15:16;;;;;;;1.05;0.85;;;31.70;45.80;;;30.81;29.91;100071.00;10256114;28;96751;-85
2022/07/04 08:20:19;;;;;;;2.13;0.88;;;31.70;45.80;;;30.82;29.67;100072.63;10267032;28;96745;-86
2022/07/04 08:25:22;;;;;;;1.45;1.05;;;31.70;45.60;;;30.80;29.33;100066.63;10270489;28;98192;-85
2022/07/04 08:30:25;;;;;;;2.47;1.10;;;31.60;45.50;;;30.82;29.55;100069.06;10249410;28;98358;-85
2022/07/04 08:35:28;;;;;;;14.68;2.05;;;31.70;45.60;;;30.73;28.92;100073.66;10249918;28;96764;-86
2022/07/04 08:40:33;;;;;;;2.53;1.10;;;31.60;45.00;;;30.52;29.42;100074.00;10243427;28;96680;-86
2022/07/04 08:45:37;;;;;;;2.65;1.33;;;31.40;45.20;;;30.54;29.78;100066.31;10245817;28;98206;-85
2022/07/04 08:50:55;;;;;;;2.25;1.08;;;31.40;45.60;;;30.65;29.95;100069.66;10237021;28;102731;-86
2022/07/04 09:01:23;;;;;;;2.08;1.13;;;31.70;45.50;;;31.02;29.14;100056.88;10232446;28;97521;-85
2022/07/04 09:06:28;;;;;;;1.85;1.30;;;31.90;45.10;;;31.20;28.29;100055.09;10254529;28;97154;-85
2022/07/04 09:11:32;;;;;;;3.88;1.25;;;32.10;44.60;;;31.40;28.34;100054.66;10267646;28;98354;-85
2022/07/04 09:16:36;;;;;;;1.92;1.08;;;32.20;44.50;;;31.62;27.88;100051.94;10262881;28;96721;-85
2022/07/04 09:21:47;;;;;;;2.17;0.88;;;32.50;44.20;;;31.87;28.11;100050.53;10264455;28;96824;-85
2022/07/04 09:26:50;;;;;;;2.97;1.30;;;32.80;44.30;;;32.12;27.69;100040.81;10250020;28;97812;-85
2022/07/04 09:31:56;;;;;;;3.13;0.88;;;33.00;43.80;;;32.21;26.38;100036.19;10248772;28;98448;-85
2022/07/04 09:37:00;;;;;;;2.10;1.10;;;33.10;42.80;;;32.40;26.44;100041.47;10292545;28;97341;-85
2022/07/04 09:42:08;;;;;;;1.63;1.10;;;33.30;43.00;;;32.50;25.43;100027.41;10274336;28;96898;-85
2022/07/04 09:47:22;;;;;;;1.13;0.80;;;33.40;42.20;;;32.64;24.66;100041.06;10295415;28;96763;-85
2022/07/04 09:52:27;;;;;;;0.95;0.70;;;33.50;40.60;;;32.77;25.48;100031.06;10293261;28;97464;-85
2022/07/04 09:57:31;;;;;;;2.80;1.00;;;33.60;41.70;;;32.90;25.12;100024.66;10273919;28;97794;-85
2022/07/04 10:02:34;;;;;;;2.45;0.73;;;33.80;41.60;;;33.05;25.33;100031.66;10282115;28;96737;-85
2022/07/04 10:07:43;;;;;;;3.17;0.80;;;33.90;41.60;;;33.18;24.84;100025.19;10262957;28;96529;-84
2022/07/04 10:12:50;;;;;;;0.98;0.88;;;34.00;41.50;;;33.26;25.04;100016.09;10278999;28;96760;-85
2022/07/04 10:17:53;;;;;;;2.70;1.00;;;34.10;41.40;;;33.40;24.57;100012.41;10302394;28;96583;-84
2022/07/04 10:22:57;;;;;;;0.95;0.77;;;34.20;40.60;;;33.51;24.19;100006.22;10278551;28;96816;-84
2022/07/04 10:28:00;;;;;;;2.17;0.85;;;34.40;40.70;;;33.60;24.22;100002.69;10274575;28;96691;-85
2022/07/04 10:33:07;;;;;;;0.82;0.65;;;34.40;40.80;;;33.70;24.18;99991.28;10298563;28;96707;-85
2022/07/04 10:38:11;;;;;;;2.78;0.93;;;34.50;40.80;;;33.76;23.65;99982.53;10284091;28;96981;-84
2022/07/04 10:43:41;;;;;;;1.52;0.77;;;34.60;40.30;;;33.85;22.54;99984.47;10295376;28;98199;-84
2022/07/04 10:49:17;;;;;;;1.90;0.68;;;34.80;38.50;;;33.96;22.60;99977.50;10270935;28;96655;-85
2022/07/04 10:54:31;;;;;;;2.72;0.70;;;34.80;38.40;;;34.07;22.41;99984.28;10298927;28;96650;-84
2022/07/04 10:59:35;;;;;;;1.05;0.73;;;34.90;38.90;;;34.25;22.41;99965.69;10282249;28;97375;-84
2022/07/04 11:04:50;;;;;;;2.72;0.85;;;35.00;39.00;;;34.43;21.06;99960.91;10274206;28;96616;-84
2022/07/04 11:15:14;;;;;;;1.55;0.70;;;35.30;38.30;;;34.71;21.23;99942.72;10300973;28;97302;-84
2022/07/04 11:20:18;;;;;;;1.25;0.70;;;35.50;37.80;;;34.77;21.10;99946.91;10295667;28;96600;-84
2022/07/04 11:25:21;;;;;;;0.98;0.43;;;35.60;37.40;;;34.92;20.05;99941.94;10311880;28;97442;-84
2022/07/04 11:30:24;;;;;;;2.33;0.57;;;35.70;36.70;;;35.04;20.67;99940.06;10269567;28;96689;-83
2022/07/04 11:35:27;;;;;;;2.80;0.63;;;35.80;36.80;;;35.15;19.98;99937.72;10280460;28;97162;-84
2022/07/04 11:46:13;;;;;;;1.35;0.60;;;36.10;36.40;;;35.42;19.02;99916.16;10276106;28;96740;-85
2022/07/04 11:51:17;;;;;;;0.80;0.60;;;36.30;36.10;;;35.52;19.16;99913.81;10269128;28;97659;-85
2022/07/04 11:56:21;;;;;;;0.60;0.60;;;36.30;35.60;;;35.60;19.24;99912.88;10266317;28;98455;-84
2022/07/04 12:01:28;;;;;;;1.42;0.75;;;36.40;36.00;;;35.80;20.22;99904.84;10277956;28;98315;-85
2022/07/04 12:06:31;;;;;;;1.63;1.33;;;36.70;36.50;;;36.00;20.00;99898.47;10248933;28;96793;-84
2022/07/04 12:11:56;;;;;;;4.60;0.80;;;36.90;36.30;;;36.04;18.95;99915.16;10249579;28;96648;-84
2022/07/04 12:17:12;;;;;;;1.10;0.90;;;36.90;35.70;;;36.06;18.90;99902.59;10294862;28;96593;-84
2022/07/04 12:22:31;;;;;;;0.63;0.60;;;36.90;34.90;;;36.05;18.95;99889.94;10294031;28;96812;-83
2022/07/04 12:27:35;;;;;;;1.15;0.70;;;36.90;35.50;;;36.18;18.70;99910.09;10272725;28;96668;-85
2022/07/04 12:32:51;;;;;;;1.90;0.73;;;37.00;35.60;;;36.38;18.40;99895.31;10271091;28;97369;-85
2022/07/04 12:38:41;;;;;;;1.33;0.80;;;37.20;35.50;;;36.65;18.79;99895.75;10292485;28;96718;-85
2022/07/04 12:43:51;;;;;;;2.70;0.93;;;37.40;35.50;;;36.74;18.42;99884.53;10240061;28;96646;-86
2022/07/04 12:48:55;;;;;;;1.25;0.60;;;37.60;35.10;;;36.86;18.22;99890.81;10266580;28;98468;-86
2022/07/04 12:54:07;;;;;;;0.95;0.77;;;37.70;35.00;;;36.82;17.49;99895.44;10275057;28;98117;-85
2022/07/04 12:59:20;;;;;;;1.60;0.90;;;37.60;34.20;;;36.53;17.47;99891.06;10269285;28;96869;-85
2022/07/04 13:04:23;;;;;;;1.25;0.73;;;37.30;34.20;;;36.43;18.38;99884.03;10224488;28;96607;-83
2022/07/04 13:09:26;;;;;;;2.17;0.85;;;37.00;35.20;;;36.58;18.43;99879.72;10279364;28;96600;-84
2022/07/04 13:14:29;;;;;;;1.77;0.95;;;37.20;35.40;;;36.69;18.72;99885.56;10276865;28;96726;-84
2022/07/04 13:19:32;;;;;;;2.72;0.93;;;37.30;35.30;;;36.64;18.48;99883.84;10311968;28;96532;-85
2022/07/04 13:24:35;;;;;;;3.28;1.05;;;37.30;35.10;;;36.66;18.54;99881.56;10295430;28;96551;-85
2022/07/04 13:29:38;;;;;;;3.15;1.10;;;37.30;35.50;;;36.70;19.15;99879.69;10309557;28;96611;-85
2022/07/04 13:34:41;;;;;;;1.20;0.90;;;37.30;35.90;;;36.84;18.63;99881.28;10288435;28;97036;-85
2022/07/04 13:39:44;;;;;;;3.83;0.90;;;37.50;35.90;;;37.06;19.08;99872.41;10296473;28;96891;-84
2022/07/04 13:44:53;;;;;;;1.55;0.90;;;37.70;35.30;;;37.12;19.20;99864.66;10275204;28;98099;-85
2022/07/04 13:49:56;;;;;;;1.55;0.70;;;37.80;36.30;;;37.24;18.61;99861.81;10260804;28;96571;-85
2022/07/04 13:54:59;;;;;;;1.05;1.00;;;38.10;35.50;;;37.39;18.30;99857.50;10282440;28;96592;-84
2022/07/04 14:00:06;;;;;;;1.70;1.10;;;38.30;35.30;;;37.31;18.87;99862.03;10292657;28;96720;-85
2022/07/04 14:05:09;;;;;;;;;;;38.20;35.60;;;37.23;19.00;99860.22;10295288;28;96530;-85
2022/07/04 14:10:12;;;;;;;1.10;0.90;;;37.90;35.60;;;37.22;19.54;99851.09;10276658;28;98475;-85
2022/07/04 14:15:15;;;;;;;1.27;1.00;;;37.90;36.20;;;37.15;19.11;99862.00;10277150;28;97617;-85
2022/07/04 14:20:18;;;;;;;1.90;0.95;;;37.90;36.00;;;37.14;19.29;99849.31;10284251;28;99073;-84
2022/07/04 14:25:22;;;;;;;1.33;0.88;;;37.90;35.90;;;37.11;18.98;99846.44;10299879;28;96734;-85
2022/07/04 14:30:25;;;;;;;2.00;1.10;;;37.80;35.60;;;37.07;18.94;99851.91;10280781;28;96999;-86
2022/07/04 14:35:28;;;;;;;2.90;0.80;;;37.80;35.70;;;37.26;19.31;99844.88;10272834;28;96676;-85
2022/07/04 14:40:31;;;;;;;2.88;0.95;;;37.90;35.80;;;37.29;18.58;99841.38;10267271;28;96806;-85
2022/07/04 14:45:34;;;;;;;3.15;0.82;;;38.10;36.40;;;37.49;18.70;99835.63;10238955;28;98377;-86
2022/07/04 14:50:36;;;;;;;2.13;0.88;;;38.30;35.60;;;37.59;18.71;99844.53;10203400;28;96534;-85
2022/07/04 14:55:40;;;;;;;1.80;0.80;;;38.40;35.40;;;37.56;17.77;99845.28;10229785;28;97345;-85
2022/07/04 15:00:42;;;;;;;2.28;1.00;;;38.30;35.10;;;37.28;17.91;99839.78;10234139;28;96617;-86
2022/07/04 15:05:45;;;;;;;4.63;0.90;;;37.90;35.00;;;37.09;18.13;99832.16;10242605;28;97152;-85
2022/07/04 15:10:48;;;;;;;2.03;0.90;;;37.70;35.00;;;37.02;18.31;99831.97;10243027;28;96721;-85
2022/07/04 15:16:11;;;;;;;3.53;0.68;;;37.60;34.90;;;36.97;18.63;99819.16;10272711;28;96518;-85
2022/07/04 15:26:51;;;;;;;2.38;1.00;;;37.50;35.90;;;36.85;18.84;99821.97;10255574;28;98270;-87
2022/07/04 15:31:54;;;;;;;0.90;0.70;;;37.40;35.30;;;36.75;18.75;99817.72;10241470;28;96624;-86
2022/07/04 15:36:58;;;;;;;2.05;0.88;;;37.30;35.30;;;36.70;19.08;99804.13;10248886;28;96513;-86
2022/07/04 15:42:01;;;;;;;2.15;0.88;;;37.30;35.70;;;36.76;19.31;99808.25;10249380;28;98082;-86
2022/07/04 15:47:07;;;;;;;3.33;1.00;;;37.30;36.00;;;36.66;20.63;99820.66;10254978;28;96526;-86
2022/07/04 15:52:10;;;;;;;5.07;1.80;;;37.30;37.50;;;36.24;23.32;99825.72;10257739;28;96478;-86
2022/07/04 15:57:13;;;;;;;3.70;1.48;;;37.00;40.20;;;35.85;24.53;99844.59;10236968;28;98746;-84
2022/07/04 16:02:16;;;;;;;1.85;1.30;;;36.60;41.30;;;35.49;25.58;99833.53;10251644;28;97075;-84
2022/07/04 16:07:19;;;;;;;3.13;1.50;;;36.20;42.10;;;35.29;25.95;99852.59;10256925;28;96602;-86
2022/07/04 16:12:22;;;;;;;3.88;1.67;;;36.00;42.70;;;35.27;26.63;99843.03;10254754;28;96670;-86
2022/07/04 16:17:25;;;;;;;4.30;1.30;;;35.90;42.70;;;35.14;25.83;99850.47;10255110;28;97011;-85
2022/07/04 16:22:28;;;;;;;2.47;1.30;;;35.90;42.50;;;34.94;26.37;99854.09;10255821;28;96775;-85
2022/07/04 16:27:32;;;;;;;3.38;1.27;;;35.70;42.70;;;34.79;27.17;99848.03;10255941;28;97252;-86
2022/07/04 16:32:37;;;;;;;2.80;1.33;;;35.60;43.10;;;34.50;27.64;99856.38;10259101;28;96471;-85
2022/07/04 16:37:40;;;;;;;2.47;1.23;;;35.30;43.50;;;34.43;27.38;99862.44;10281084;28;97449;-84
2022/07/04 16:42:42;;;;;;;4.00;1.50;;;35.30;43.40;;;34.00;27.05;99859.91;10277885;28;99020;-84
2022/07/04 16:47:46;;;;;;;1.83;1.35;;;34.90;43.30;;;33.33;28.64;99857.84;10264349;28;96423;-84
2022/07/04 16:52:49;;;;;;;7.03;1.60;;;34.20;44.40;;;32.78;29.74;99859.34;10280148;28;96579;-83
2022/07/04 16:57:52;;;;;;;5.13;1.67;;;33.60;45.40;;;32.23;31.06;99859.91;10278820;28;96514;-84
2022/07/04 17:02:55;;;;;;;6.40;1.80;;;33.10;46.50;;;31.79;32.03;99858.13;10295885;28;97187;-84
2022/07/04 17:07:58;;;;;;;4.65;1.80;;;32.60;47.80;;;31.38;32.73;99862.78;10276616;28;96937;-84
2022/07/04 17:13:02;;;;;;;2.95;1.67;;;32.20;48.10;;;31.04;33.26;99857.06;10256841;28;96543;-83
2022/07/04 17:18:06;;;;;;;3.85;1.85;;;31.90;48.60;;;30.79;34.01;99861.22;10309851;28;97411;-83
2022/07/04 17:23:12;;;;;;;6.22;2.10;;;31.60;49.10;;;30.56;34.46;99852.13;10248840;28;96579;-83
2022/07/04 17:28:15;;;;;;;4.85;2.17;;;31.40;49.50;;;30.37;34.92;99847.59;10256964;28;96616;-83
2022/07/04 17:33:18;;;;;;;7.90;2.10;;;31.20;49.90;;;30.22;35.38;99839.69;10293056;28;97051;-83
2022/07/04 17:38:21;;;;;;;6.30;1.80;;;31.10;50.10;;;30.10;35.30;99851.19;10274460;28;98264;-84
2022/07/04 17:43:24;;;;;;;2.58;1.88;;;30.90;50.00;;;29.99;35.37;99836.06;10295742;28;97000;-84
2022/07/04 17:48:30;;;;;;;5.50;1.50;;;30.80;50.20;;;29.91;34.82;99834.03;10267649;28;97778;-83
2022/07/04 17:53:32;;;;;;;5.50;1.70;;;30.70;50.00;;;29.80;35.77;99829.88;10263168;28;98254;-84
2022/07/04 17:58:37;;;;;;;1.98;1.55;;;30.70;50.40;;;29.63;36.09;99832.38;10275698;28;98094;-84
2022/07/04 18:03:40;;;;;;;5.03;1.67;;;30.50;50.80;;;29.45;36.71;99825.84;10275202;28;97406;-83
2022/07/04 18:08:44;;;;;;;3.72;1.50;;;30.40;51.20;;;29.26;37.30;99831.41;10283896;28;96929;-83
2022/07/04 18:13:48;;;;;;;3.67;1.73;;;30.20;51.60;;;29.16;37.15;99840.63;10268134;28;97371;-84
2022/07/04 18:18:52;;;;;;;1.98;1.55;;;30.00;51.80;;;29.11;37.49;99842.63;10273684;28;98338;-84
2022/07/04 18:23:55;;;;;;;3.83;1.95;;;30.00;51.80;;;29.09;37.29;99845.66;10275558;28;97644;-83
2022/07/04 18:28:59;;;;;;;3.63;1.63;;;29.90;51.70;;;29.06;36.86;99854.44;10270003;28;98210;-83
2022/07/04 18:34:01;;;;;;;3.53;1.65;;;29.90;51.50;;;29.04;36.58;99854.75;10279144;28;96651;-83
2022/07/04 18:39:04;;;;;;;2.40;1.48;;;29.90;51.30;;;29.01;36.56;99854.53;10265532;28;98104;-83
2022/07/04 18:44:07;;;;;;;4.32;1.30;;;29.90;51.20;;;29.00;36.61;99856.47;10268931;28;98515;-83
2022/07/04 18:49:11;;;;;;;4.90;1.60;;;29.90;51.10;;;28.99;36.79;99857.56;10269376;28;97363;-83
2022/07/04 18:54:14;;;;;;;4.82;1.50;;;29.80;50.80;;;29.00;36.37;99864.66;10274944;28;96649;-83
2022/07/04 18:59:17;;;;;;;5.85;1.45;;;29.80;50.80;;;28.96;35.96;99871.81;10299937;28;96722;-83
2022/07/04 19:04:21;;;;;;;1.85;1.30;;;29.90;50.50;;;28.95;35.82;99874.88;10284200;28;96503;-83
2022/07/04 19:09:24;;;;;;;1.83;1.38;;;29.80;50.50;;;28.90;36.03;99875.72;10296877;28;96578;-84
2022/07/04 19:14:27;;;;;;;2.83;1.27;;;29.70;50.40;;;28.95;35.76;99883.06;10278749;28;98052;-84
2022/07/04 19:19:30;;;;;;;2.72;1.20;;;29.70;50.20;;;28.99;35.31;99884.13;10261052;28;97520;-84
2022/07/04 19:24:33;;;;;;;3.28;1.60;;;29.80;50.60;;;29.00;36.03;99888.47;10279151;28;98190;-83
2022/07/04 19:29:37;;;;;;;2.28;1.40;;;29.80;50.30;;;29.01;35.85;99906.50;10276254;28;96890;-83
2022/07/04 19:34:39;;;;;;;2.67;1.60;;;29.80;50.30;;;28.97;35.63;99911.78;10271901;28;96595;-84
2022/07/04 19:39:43;;;;;;;2.70;1.55;;;29.80;50.30;;;28.93;36.43;99912.66;10291048;28;97897;-83
2022/07/04 19:44:46;;;;;;;7.50;1.60;;;29.80;50.70;;;28.88;36.62;99912.69;10278965;28;96559;-83
2022/07/04 19:49:50;;;;;;;5.15;1.38;;;29.70;51.20;;;28.82;37.28;99911.94;10261002;28;96868;-83
2022/07/04 19:55:03;;;;;;;3.35;1.60;;;29.70;51.50;;;28.75;38.09;99911.53;10279711;28;97266;-83
2022/07/04 20:00:08;;;;;;;3.65;1.70;;;29.60;52.00;;;28.68;38.25;99914.63;10265488;28;96580;-83
2022/07/04 20:05:13;;;;;;;5.75;1.40;;;29.50;52.60;;;28.61;38.88;99907.88;10280234;28;97048;-83
2022/07/04 20:10:17;;;;;;;2.22;1.17;;;29.40;52.90;;;28.57;38.73;99902.19;10292910;28;96822;-84
2022/07/04 20:15:20;;;;;;;8.88;1.85;;;29.40;53.20;;;28.54;39.27;99910.97;10278779;28;97622;-84
2022/07/04 20:20:23;;;;;;;3.42;1.63;;;29.30;53.30;;;28.51;39.28;99901.44;10274821;28;97709;-84
2022/07/04 20:25:26;;;;;;;3.13;1.70;;;29.40;53.60;;;28.53;39.16;99898.41;10263603;28;96708;-84
2022/07/04 20:30:29;;;;;;;5.40;1.60;;;29.30;53.70;;;28.51;39.33;99895.97;10259505;28;97474;-84
2022/07/04 20:35:33;;;;;;;3.28;1.40;;;29.30;53.80;;;28.53;39.68;99888.28;10276645;28;97443;-83
2022/07/04 20:40:36;;;;;;;4.43;1.33;;;29.30;54.20;;;28.51;39.74;99879.59;10279752;28;96541;-84
2022/07/04 20:45:40;;;;;;;8.55;1.70;;;29.40;53.90;;;28.50;39.47;99882.63;10258024;28;98125;-84
2022/07/04 20:50:43;;;;;;;3.97;1.40;;;29.30;53.80;;;28.47;39.48;99880.47;10280140;28;96473;-84
2022/07/04 20:55:46;;;;;;;5.35;1.52;;;29.30;53.80;;;28.41;39.61;99893.38;10278846;28;96748;-84
2022/07/04 21:00:49;;;;;;;5.10;1.30;;;29.30;53.90;;;28.37;39.60;99897.81;10294645;28;96812;-84
2022/07/04 21:05:52;;;;;;;3.38;1.27;;;29.30;54.00;;;28.31;40.38;99901.69;10295971;28;96622;-85
2022/07/04 21:10:55;;;;;;;5.75;1.60;;;29.30;54.10;;;28.26;40.38;99904.50;10277458;28;97300;-85
2022/07/04 21:15:58;;;;;;;4.05;1.52;;;29.30;54.10;;;28.22;39.92;99912.44;10274116;28;97123;-84
2022/07/04 21:21:01;;;;;;;4.07;1.50;;;29.20;53.80;;;28.20;40.68;99924.78;10254795;28;96484;-84
2022/07/04 21:26:04;;;;;;;3.70;1.30;;;29.20;54.20;;;28.20;39.97;99924.78;10263337;28;98162;-84
2022/07/04 21:31:07;;;;;;;2.25;1.20;;;29.20;54.00;;;28.19;39.98;99920.44;10284615;28;97484;-84
2022/07/04 21:36:16;;;;;;;2.72;1.10;;;29.20;54.00;;;28.15;39.84;99919.38;10270664;28;96641;-84